Weather observations for the past three days for
Fond Du Lac County Airport
Imperial (Metric)
Date Time (cdt) Wind (mph) Vis. (mi.) Weather Sky Cond. Temperature (ºF) Relative Humidity Wind Chill (°F) Heat Index (°F) Pressure Precipitation (in)
Air Dwpt 6 hour altimeter (in) sea level (mb) 1 hr 3 hr 6 hr
Max. Min.
01 15:53 SW 8 10.00 Fair CLR 88 72 59% 95 29.92 1012.4
01 14:53 W 8 10.00 A Few Clouds FEW035 90 73 58% 98 29.92 1012.6
01 13:53 SW 6 10.00 A Few Clouds FEW035 87.1 73.9 65% 95 29.93 1012.9
01 12:53 W 5 10.00 Mostly Cloudy BKN029 BKN037 87.1 73.9 89.1 72 65% 95 29.93 1012.9
01 11:53 SW 7 10.00 Fair CLR 87.1 73.9 65% 95 29.95 1013.6
01 10:53 Calm 10.00 A Few Clouds FEW022 84.9 75.9 75% 94 29.95 1013.5
01 09:53 S 3 10.00 Fair CLR 81 75.9 85% 87 29.95 1013.7
01 08:53 S 5 8.00 Fair CLR 75.9 73 91% 76 29.95 1013.7
01 07:53 Calm 5.00 Fog/Mist CLR 73 72 96% 29.96 1013.9
01 06:53 Calm 3.00 Fog/Mist CLR 72 71.1 73.9 70 97% 29.94 1013.3
01 05:53 W 6 6.00 Fog/Mist CLR 72 71.1 97% 29.92 1012.7
01 04:53 SW 3 6.00 Fog/Mist FEW025 SCT031 72 71.1 97% 29.92 1012.5
01 03:53 SW 6 8.00 Fair CLR 73 72 96% 29.92 1012.5
01 02:53 SW 6 10.00 A Few Clouds FEW027 73 72 96% 29.91 1012.3
01 01:53 SW 5 10.00 Fair CLR 73.9 72 94% 29.91 1012.4
01 00:53 S 3 8.00 Fair CLR 70 70 82.9 70 100% 29.91 1012.4
31 23:53 S 5 10.00 Fair CLR 73 71.1 94% 29.91 1012.3
31 22:53 S 5 10.00 Fair CLR 75 72 90% 74 29.91 1012.5
31 21:53 S 6 10.00 Fair CLR 75.9 73 91% 76 29.92 1012.6
31 20:53 SW 6 10.00 Fair CLR 78.1 72 82% 80 29.92 1012.6
31 19:53 S 8 10.00 Fair CLR 81 73 77% 86 29.88 1011.4
31 18:53 SW 10 10.00 Fair CLR 82.9 73 89.1 82.9 72% 89 29.88 1011.1
31 17:53 SW 7 10.00 Fair CLR 84 73.9 72% 91 29.87 1010.8
31 16:53 S 8 10.00 Fair CLR 84.9 73 68% 92 29.86 1010.6
31 15:53 SW 9 10.00 Fair CLR 87.1 73 63% 95 29.86 1010.6
31 14:53 SW 8 10.00 Fair CLR 87.1 72 61% 94 29.86 1010.5
31 13:53 SW 13 G 20 10.00 Fair CLR 87.1 71.1 59% 93 29.86 1010.7
31 12:53 S 13 10.00 Fair CLR 84.9 70 86 72 61% 89 29.87 1010.9
31 11:53 S 14 G 21 10.00 Fair CLR 82.9 69.1 63% 87 29.87 1011.1
31 10:53 S 15 10.00 Fair CLR 81 68 65% 84 29.88 1011.2
31 09:53 S 15 G 23 10.00 Fair CLR 79 66 65% 81 29.87 1011.2
31 08:53 S 13 10.00 Fair CLR 77 66 69% 79 29.87 1011.0
31 07:53 S 12 10.00 A Few Clouds FEW080 73.9 66 76% 29.86 1010.9
31 06:53 S 9 10.00 Fair CLR 72 66 73 68 82% 29.86 1010.7
31 05:53 S 10 10.00 Overcast BKN085 OVC100 72 66.9 84% 29.86 1010.8
31 04:53 S 10 10.00 Overcast BKN080 OVC100 73 66 79% 29.88 1011.3
31 03:53 SE 5 10.00 Overcast BKN075 OVC090 70 66.9 90% 29.9 1011.9
31 02:53 S 5 10.00 Overcast OVC095 69.1 66.9 93% 29.91 1012.2
31 01:53 SE 7 10.00 Fair CLR 69.1 66.9 93% 29.93 1013.0
31 00:53 SE 5 10.00 Overcast OVC110 70 68 75.9 69.1 93% 29.95 1013.8 0.02
30 23:53 S 5 7.00 Light Rain FEW050 FEW085 BKN110 69.1 68 96% 29.96 1013.9 0.02
30 22:53 Calm 10.00 Fair CLR 70 68 93% 29.95 1013.7
30 21:53 S 6 10.00 Fair CLR 71.1 68 90% 29.93 1013.2
30 20:53 SW 7 10.00 Fair CLR 72 68 87% 29.92 1012.9
30 19:53 S 3 10.00 Fair CLR 73 68 84% 29.93 1013.0
30 18:53 S 10 10.00 Fair CLR 75.9 68 82.9 75.9 77% 77 29.91 1012.4
30 17:53 S 10 10.00 Fair CLR 78.1 68 71% 80 29.91 1012.3
30 15:53 SW 9 10.00 Fair CLR 82 66.9 60% 85 29.89 1011.8
30 14:53 SW 10 G 22 10.00 A Few Clouds FEW038 82 66 58% 84 29.9 1011.9
30 13:53 SW 14 G 25 10.00 Partly Cloudy SCT040 82.9 68 61% 86 29.91 1012.2
30 12:53 SW 10 G 20 10.00 Fair CLR 82.9 66 84 68 57% 85 29.88 1011.4
30 11:53 S 12 10.00 Fair CLR 82.9 66 57% 85 29.89 1011.6
30 10:53 SW 10 G 21 10.00 Fair CLR 81 64.9 58% 83 29.9 1012.0
30 09:53 SW 10 G 18 10.00 Fair CLR 79 64.9 62% 81 29.91 1012.3
30 08:53 S 9 10.00 Fair CLR 73.9 64.9 74% 29.91 1012.4
30 07:53 S 10 10.00 Fair CLR 71.1 64 79% 29.91 1012.6
30 06:53 S 9 10.00 Fair CLR 68 64 71.1 66.9 87% 29.91 1012.5
30 05:53 S 7 10.00 Partly Cloudy SCT080 66.9 64 91% 29.91 1012.3
30 04:53 S 6 10.00 Overcast BKN080 OVC100 68 64.9 90% 29.91 1012.7
30 03:53 S 3 10.00 Overcast OVC075 69.1 64 84% 29.92 1012.8
30 02:53 S 10 10.00 Overcast OVC070 71.1 64 79% 29.92 1012.7
30 01:53 S 9 10.00 Overcast OVC070 71.1 64 79% 29.93 1013.3
30 00:53 S 9 10.00 Overcast OVC075 71.1 64 71.1 66 79% 29.95 1014.0
29 23:53 S 7 10.00 Overcast OVC075 68 64 87% 29.96 1014.4
29 22:53 S 5 10.00 Fair CLR 66.9 63 87% 29.98 1014.8
29 21:53 S 7 10.00 Mostly Cloudy BKN100 70 62.1 76% 29.97 1014.7
29 20:53 S 13 10.00 A Few Clouds FEW120 70 62.1 76% 29.97 1014.4
29 19:53 SE 12 10.00 Fair CLR 70 63 79% 29.95 1013.9
29 18:53 SE 10 10.00 Overcast OVC110 70 63 71.1 68 79% 29.96 1014.4 0.01
29 17:53 SE 12 10.00 Overcast OVC100 70 63 79% 29.98 1015.0
29 16:53 S 7 10.00 Overcast OVC085 68 62.1 81% 30 1015.9
Date Time (cdt) Wind (mph) Vis. (mi.) Weather Sky Cond. Air Dwpt Max. Min. Relative Humidity Wind Chill (°F) Heat Index (°F) altimeter (in) sea level (mb) 1 hr 3 hr 6 hr
6 hour
Temperature (ºF) Pressure Precipitation (in)